Time;durP1;ratioP1;P1;durP2;ratioP2;P2;SDS_P1;SDS_P2;PMS_P1;PMS_P2;Temp;Humidity;BMP_temperature;BMP_pressure;BME280_temperature;BME280_humidity;BME280_pressure;Samples;Min_cycle;Max_cycle;Signal;HPM_P1;HPM_P2
2021/06/25 00:01:08;;;;;;;10.57;9.63;;;;;;;19.91;77.45;99656.41;5097275;28;20044;-50
2021/06/25 00:03:33;;;;;;;9.75;8.82;;;;;;;19.85;77.83;99659.44;5097228;28;20048;-50
2021/06/25 00:05:59;;;;;;;11.50;10.43;;;;;;;19.79;78.08;99650.09;5096925;28;20047;-50
2021/06/25 00:08:25;;;;;;;10.48;9.45;;;;;;;19.76;78.06;99655.63;5097165;28;20075;-50
2021/06/25 00:10:51;;;;;;;11.65;10.32;;;;;;;19.75;77.91;99668.97;5097062;28;20047;-50
2021/06/25 00:13:17;;;;;;;11.48;10.27;;;;;;;19.68;78.10;99654.41;5097076;28;20112;-50
2021/06/25 00:15:42;;;;;;;11.50;10.30;;;;;;;19.65;77.98;99643.97;5097048;28;20193;-49
2021/06/25 00:18:08;;;;;;;14.30;9.35;;;;;;;19.60;78.24;99662.84;5097269;28;20055;-50
2021/06/25 00:20:34;;;;;;;12.65;9.82;;;;;;;19.55;77.92;99663.13;5096700;28;20352;-50
2021/06/25 00:23:00;;;;;;;10.60;9.50;;;;;;;19.52;78.22;99673.09;5095999;28;20044;-50
2021/06/25 00:25:26;;;;;;;11.30;9.50;;;;;;;19.47;78.14;99664.59;5096581;28;20044;-50
2021/06/25 00:27:52;;;;;;;12.18;9.65;;;;;;;19.43;78.10;99657.75;5096521;28;20067;-50
2021/06/25 00:30:18;;;;;;;10.20;9.13;;;;;;;19.34;78.24;99653.91;5096691;28;20040;-49
2021/06/25 00:32:45;;;;;;;11.98;10.27;;;;;;;19.31;77.98;99656.75;5096785;28;20063;-50
2021/06/25 00:35:10;;;;;;;12.52;9.77;;;;;;;19.23;78.12;99651.06;5096747;28;20441;-50
2021/06/25 00:37:36;;;;;;;9.88;8.88;;;;;;;19.20;78.06;99657.41;5096437;28;20051;-50
2021/06/25 00:40:04;;;;;;;12.45;9.68;;;;;;;19.17;78.44;99654.09;5096662;28;20048;-50
2021/06/25 00:42:29;;;;;;;10.93;8.75;;;;;;;19.13;78.35;99667.56;5096611;28;20091;-50
2021/06/25 00:44:55;;;;;;;9.20;8.40;;;;;;;19.11;78.28;99656.19;5095376;28;20451;-50
2021/06/25 00:47:21;;;;;;;11.32;8.73;;;;;;;19.10;78.44;99659.78;5096292;28;20055;-50
2021/06/25 00:49:47;;;;;;;10.68;9.20;;;;;;;19.05;78.49;99669.84;5095502;28;20056;-50
2021/06/25 00:52:19;;;;;;;11.82;10.63;;;;;;;18.95;78.15;99643.94;5096486;28;20063;-50
2021/06/25 00:54:45;;;;;;;11.02;9.25;;;;;;;18.99;78.37;99667.56;5061840;28;20062;-49
2021/06/25 00:57:10;;;;;;;10.52;9.45;;;;;;;18.99;78.44;99677.34;5096709;28;20052;-50
2021/06/25 00:59:38;;;;;;;10.65;9.35;;;;;;;18.99;78.43;99685.31;5096084;28;20101;-50
2021/06/25 01:02:04;;;;;;;10.68;9.45;;;;;;;18.96;78.57;99688.13;5095493;28;20109;-50
2021/06/25 01:04:29;;;;;;;9.63;8.50;;;;;;;18.91;78.76;99681.31;5096341;28;20075;-50
2021/06/25 01:06:55;;;;;;;9.70;8.73;;;;;;;18.91;78.96;99680.44;5096354;28;20314;-50
2021/06/25 01:09:21;;;;;;;12.40;9.70;;;;;;;18.86;79.05;99677.25;5095330;28;20070;-50
2021/06/25 01:11:47;;;;;;;11.27;8.93;;;;;;;18.88;78.81;99664.72;5096284;28;20072;-49
2021/06/25 01:14:13;;;;;;;8.70;7.80;;;;;;;18.91;78.65;99670.72;5095405;28;20074;-50
2021/06/25 01:16:39;;;;;;;11.52;9.30;;;;;;;18.92;79.06;99674.22;5095273;28;20364;-50
2021/06/25 01:19:11;;;;;;;11.93;9.45;;;;;;;18.92;78.85;99664.44;5095905;28;20052;-50
2021/06/25 01:21:37;;;;;;;10.43;9.32;;;;;;;18.89;79.20;99661.97;5096205;28;20088;-50
2021/06/25 01:24:03;;;;;;;11.63;10.27;;;;;;;18.88;79.29;99656.75;5095910;28;20485;-50
2021/06/25 01:26:29;;;;;;;13.02;10.13;;;;;;;18.85;79.67;99659.63;5095738;28;20059;-50
2021/06/25 01:28:55;;;;;;;11.98;9.32;;;;;;;18.81;79.58;99653.63;5096110;28;20109;-50
2021/06/25 01:31:20;;;;;;;11.20;9.23;;;;;;;18.89;79.30;99655.81;5095237;28;20052;-50
2021/06/25 01:33:47;;;;;;;10.45;9.30;;;;;;;18.85;79.46;99664.94;5094907;28;20124;-50
2021/06/25 01:36:14;;;;;;;10.52;8.85;;;;;;;18.88;79.49;99677.97;5078327;28;20441;-50
2021/06/25 01:38:41;;;;;;;11.85;9.27;;;;;;;18.88;79.52;99688.59;5094872;28;20109;-50
2021/06/25 01:41:06;;;;;;;10.98;9.48;;;;;;;18.87;79.51;99682.44;5098783;28;20079;-50
2021/06/25 01:43:32;;;;;;;12.05;10.65;;;;;;;18.86;79.73;99682.53;5100477;28;20333;-50
2021/06/25 01:45:58;;;;;;;13.05;11.15;;;;;;;18.87;79.78;99685.09;5098778;28;20115;-50
2021/06/25 01:48:24;;;;;;;10.45;9.30;;;;;;;18.85;79.78;99679.03;5099791;28;20044;-50
2021/06/25 01:50:50;;;;;;;11.05;9.15;;;;;;;18.85;79.92;99676.38;5099731;28;20040;-50
2021/06/25 01:53:17;;;;;;;15.10;9.38;;;;;;;18.87;79.87;99674.47;5099786;28;20099;-50
2021/06/25 01:55:43;;;;;;;13.05;11.63;;;;;;;18.87;79.63;99663.84;5099957;28;20123;-50
2021/06/25 01:58:13;;;;;;;12.10;10.90;;;;;;;18.85;79.77;99649.84;5099698;28;20087;-50
2021/06/25 02:00:43;;;;;;;11.27;10.18;;;;;;;18.86;79.84;99659.50;5098764;28;20409;-50
2021/06/25 02:03:09;;;;;;;12.40;10.32;;;;;;;18.79;79.87;99662.66;5099634;28;20052;-50
2021/06/25 02:05:35;;;;;;;11.10;9.45;;;;;;;18.78;79.97;99656.47;5098471;28;20040;-50
2021/06/25 02:08:01;;;;;;;11.65;10.48;;;;;;;18.75;79.99;99637.22;5099212;28;20058;-50
2021/06/25 02:10:27;;;;;;;10.95;9.73;;;;;;;18.77;79.85;99622.09;5098926;28;20055;-49
2021/06/25 02:12:53;;;;;;;11.75;9.25;;;;;;;18.77;79.93;99614.13;5097332;28;20094;-50
2021/06/25 02:15:19;;;;;;;13.77;11.65;;;;;;;18.75;80.20;99594.78;5096176;28;20395;-50
2021/06/25 02:17:44;;;;;;;13.75;11.45;;;;;;;18.71;80.18;99594.09;5097769;28;20044;-50
2021/06/25 02:20:11;;;;;;;13.45;10.98;;;;;;;18.68;80.28;99578.38;5097831;28;20488;-49
2021/06/25 02:22:37;;;;;;;12.70;9.75;;;;;;;18.67;80.27;99553.66;5097757;28;20089;-50
2021/06/25 02:25:06;;;;;;;13.88;10.55;;;;;;;18.62;80.41;99562.84;5097994;28;20048;-49
2021/06/25 02:27:32;;;;;;;14.90;12.45;;;;;;;18.58;80.81;99559.53;5097831;28;20063;-50
2021/06/25 02:29:58;;;;;;;16.80;13.80;;;;;;;18.56;80.80;99560.59;5099046;28;20368;-50
2021/06/25 02:32:24;;;;;;;12.82;10.80;;;;;;;18.53;81.11;99568.72;5098769;28;20108;-49
2021/06/25 02:34:50;;;;;;;12.73;11.35;;;;;;;18.52;81.17;99589.06;5097839;28;20123;-50
2021/06/25 02:37:15;;;;;;;13.88;11.93;;;;;;;18.52;81.13;99609.44;5098972;28;20097;-49
2021/06/25 02:39:41;;;;;;;14.20;11.82;;;;;;;18.50;81.29;99612.19;5097793;28;20063;-50
2021/06/25 02:42:07;;;;;;;12.45;10.95;;;;;;;18.50;81.46;99601.59;5098846;28;20059;-50
2021/06/25 02:44:33;;;;;;;12.75;11.45;;;;;;;18.39;81.02;99582.81;5097925;28;20124;-50
2021/06/25 02:46:58;;;;;;;11.55;10.35;;;;;;;18.53;81.01;99614.66;5098774;28;20115;-49
2021/06/25 02:49:24;;;;;;;11.93;10.00;;;;;;;18.56;81.02;99624.22;5098342;28;20058;-50
2021/06/25 02:51:50;;;;;;;13.70;11.55;;;;;;;18.56;80.78;99621.59;5097346;28;20055;-50
2021/06/25 02:54:16;;;;;;;11.23;10.10;;;;;;;18.59;80.76;99611.63;5098641;28;20055;-50
2021/06/25 02:56:42;;;;;;;11.18;9.90;;;;;;;18.63;80.26;99594.59;5098842;28;20333;-50
2021/06/25 02:59:07;;;;;;;12.05;10.80;;;;;;;18.61;80.31;99585.84;5098534;28;20097;-50
2021/06/25 03:01:33;;;;;;;12.77;10.15;;;;;;;18.62;80.21;99598.19;5098288;28;20032;-50
2021/06/25 03:03:59;;;;;;;12.10;9.52;;;;;;;18.60;80.10;99602.72;5098460;28;20055;-50
2021/06/25 03:06:25;;;;;;;11.20;9.93;;;;;;;18.61;79.24;99612.38;5098054;28;20444;-50
2021/06/25 03:08:50;;;;;;;9.57;8.68;;;;;;;18.58;79.75;99623.16;5098274;28;20113;-50
2021/06/25 03:11:16;;;;;;;11.18;8.55;;;;;;;18.61;79.41;99616.84;5097420;28;20377;-49
2021/06/25 03:13:42;;;;;;;10.23;9.07;;;;;;;18.59;79.05;99619.59;5097940;28;20056;-50
2021/06/25 03:16:08;;;;;;;9.90;8.57;;;;;;;18.56;78.83;99627.72;5097854;28;20044;-49
2021/06/25 03:18:34;;;;;;;10.40;9.40;;;;;;;18.60;78.59;99636.34;5098171;28;20058;-49
2021/06/25 03:20:59;;;;;;;9.48;8.45;;;;;;;18.57;78.85;99637.38;5097801;28;20051;-49
2021/06/25 03:23:25;;;;;;;8.98;7.38;;;;;;;18.62;79.03;99645.06;5098060;28;20089;-49
2021/06/25 03:25:51;;;;;;;9.75;8.75;;;;;;;18.68;78.59;99652.63;5097834;28;20052;-50
2021/06/25 03:28:17;;;;;;;8.63;7.82;;;;;;;18.69;78.49;99663.16;5097661;28;20463;-50
2021/06/25 03:30:42;;;;;;;8.40;7.50;;;;;;;18.70;78.45;99656.06;5097849;28;20040;-49
2021/06/25 03:33:09;;;;;;;6.95;6.22;;;;;;;18.73;78.52;99650.59;5097586;28;20390;-49
2021/06/25 03:35:34;;;;;;;11.93;8.02;;;;;;;18.79;78.50;99644.06;5097808;28;20044;-50
2021/06/25 03:38:00;;;;;;;7.85;7.05;;;;;;;18.82;78.23;99643.88;5097759;28;20433;-50
2021/06/25 03:40:28;;;;;;;7.00;6.40;;;;;;;18.82;78.24;99655.34;5098261;28;20126;-50
2021/06/25 03:42:54;;;;;;;10.15;6.38;;;;;;;18.88;78.38;99665.59;5096529;28;20455;-49
2021/06/25 03:45:19;;;;;;;5.40;4.88;;;;;;;18.95;77.96;99674.03;5098481;28;20044;-50
2021/06/25 03:47:45;;;;;;;7.85;7.20;;;;;;;18.99;77.56;99677.34;5097640;28;20048;-50
2021/06/25 03:50:11;;;;;;;10.18;8.18;;;;;;;18.98;77.35;99681.78;5097515;28;20052;-49
2021/06/25 03:52:37;;;;;;;7.50;6.70;;;;;;;18.98;77.49;99684.44;5096617;28;20447;-50
2021/06/25 03:55:05;;;;;;;7.93;7.13;;;;;;;19.00;77.47;99689.66;5096243;28;20138;-50
2021/06/25 03:57:31;;;;;;;8.27;7.50;;;;;;;18.97;77.65;99698.66;5097632;28;20048;-50
2021/06/25 03:59:57;;;;;;;7.97;7.18;;;;;;;18.99;77.62;99696.75;5097008;28;20136;-50
2021/06/25 04:02:23;;;;;;;7.35;6.45;;;;;;;19.01;77.49;99692.22;5096932;28;20048;-50
2021/06/25 04:04:48;;;;;;;8.35;7.55;;;;;;;19.04;77.22;99691.16;5097191;28;20070;-50
2021/06/25 04:07:14;;;;;;;8.00;7.20;;;;;;;19.02;77.40;99693.91;5097177;28;20058;-50
2021/06/25 04:09:40;;;;;;;8.23;7.43;;;;;;;19.03;77.32;99694.78;5097083;28;20044;-50
2021/06/25 04:12:07;;;;;;;8.27;7.55;;;;;;;19.04;77.30;99691.16;5097124;28;20438;-50
2021/06/25 04:14:32;;;;;;;9.20;8.30;;;;;;;19.05;77.14;99693.72;5097139;28;20518;-50
2021/06/25 04:16:58;;;;;;;7.88;7.18;;;;;;;19.03;77.34;99697.41;5097063;28;20048;-50
2021/06/25 04:19:24;;;;;;;8.00;7.20;;;;;;;19.02;77.47;99701.03;5096709;28;20043;-50
2021/06/25 04:21:50;;;;;;;9.63;8.38;;;;;;;19.08;77.42;99698.84;5095838;28;20051;-50
2021/06/25 04:24:16;;;;;;;9.98;8.38;;;;;;;19.10;77.07;99702.25;5096658;28;20395;-50
2021/06/25 04:26:43;;;;;;;7.63;6.93;;;;;;;19.11;77.15;99706.63;5096835;28;20056;-50
2021/06/25 04:29:11;;;;;;;8.73;7.82;;;;;;;19.10;76.81;99712.88;5095865;28;20155;-50
2021/06/25 04:31:39;;;;;;;8.85;8.05;;;;;;;19.08;76.91;99711.28;5096829;28;20074;-50
2021/06/25 04:34:05;;;;;;;7.88;7.18;;;;;;;19.09;76.66;99710.31;5096792;28;20064;-50
2021/06/25 04:36:31;;;;;;;10.63;7.70;;;;;;;19.09;76.59;99707.66;5095845;28;20066;-50
2021/06/25 04:38:57;;;;;;;9.05;8.23;;;;;;;19.11;76.33;99708.44;5097008;28;20044;-50
2021/06/25 04:41:22;;;;;;;8.00;7.20;;;;;;;19.10;76.36;99712.88;5096369;28;20047;-50
2021/06/25 04:43:48;;;;;;;6.88;6.10;;;;;;;19.09;76.19;99712.97;5096739;28;20198;-50
2021/06/25 04:46:14;;;;;;;6.78;6.18;;;;;;;19.08;76.07;99717.44;5096636;28;20048;-50
2021/06/25 04:48:41;;;;;;;8.55;7.57;;;;;;;19.06;75.92;99710.50;5095386;28;20048;-50
2021/06/25 04:51:07;;;;;;;7.38;6.68;;;;;;;19.01;76.00;99708.16;5096419;28;20504;-50
2021/06/25 04:53:33;;;;;;;9.73;8.75;;;;;;;18.97;76.00;99711.91;5096541;28;20054;-50
2021/06/25 04:55:58;;;;;;;9.57;8.63;;;;;;;18.88;75.62;99712.47;5096223;28;20044;-49
2021/06/25 04:58:27;;;;;;;10.80;7.88;;;;;;;18.86;75.48;99715.22;5096624;28;20429;-50
2021/06/25 05:00:52;;;;;;;8.23;7.53;;;;;;;18.83;75.55;99722.53;5096448;28;20044;-50
2021/06/25 05:03:18;;;;;;;7.82;7.13;;;;;;;18.86;75.61;99735.59;5096396;28;20433;-50
2021/06/25 05:05:45;;;;;;;9.07;6.75;;;;;;;18.92;75.56;99743.19;5095470;28;20055;-50
2021/06/25 05:08:11;;;;;;;11.70;8.80;;;;;;;18.95;75.18;99736.84;5095356;28;20052;-50
2021/06/25 05:10:37;;;;;;;9.23;8.43;;;;;;;18.99;75.46;99731.25;5095979;28;20055;-50
2021/06/25 05:13:03;;;;;;;10.48;9.40;;;;;;;19.07;75.11;99736.09;5095747;28;20046;-50
2021/06/25 05:15:29;;;;;;;8.93;8.13;;;;;;;19.10;74.80;99738.56;5098089;28;20063;-50
2021/06/25 05:17:55;;;;;;;9.85;8.95;;;;;;;19.13;74.71;99741.03;5100506;28;20352;-50
2021/06/25 05:20:21;;;;;;;10.23;8.00;;;;;;;19.16;74.65;99740.84;5100415;28;20063;-50
2021/06/25 05:22:47;;;;;;;9.93;9.02;;;;;;;19.17;74.05;99733.72;5100375;28;20462;-50
2021/06/25 05:25:13;;;;;;;8.32;7.63;;;;;;;19.18;74.13;99732.81;5100026;28;20043;-50
2021/06/25 05:27:39;;;;;;;8.35;7.63;;;;;;;19.22;74.08;99729.00;5099912;28;20352;-50
2021/06/25 05:30:06;;;;;;;9.52;7.63;;;;;;;19.29;74.38;99722.34;5099908;28;20050;-50
2021/06/25 05:32:32;;;;;;;8.13;7.32;;;;;;;19.32;73.77;99727.47;5100226;28;20056;-50
2021/06/25 05:34:57;;;;;;;8.50;7.78;;;;;;;19.40;73.81;99725.16;5099848;28;20051;-50
2021/06/25 05:37:23;;;;;;;9.05;8.35;;;;;;;19.52;73.50;99723.56;5100112;28;20043;-50
2021/06/25 05:39:49;;;;;;;8.27;7.57;;;;;;;19.61;72.81;99725.63;5100082;28;20044;-50
2021/06/25 05:42:15;;;;;;;7.47;6.88;;;;;;;19.74;72.47;99731.06;5100061;28;20352;-50
2021/06/25 05:44:41;;;;;;;6.60;5.95;;;;;;;19.86;72.46;99743.56;5099762;28;20044;-50
2021/06/25 05:47:07;;;;;;;10.30;7.85;;;;;;;19.94;71.66;99743.91;5099640;28;20091;-50
2021/06/25 05:49:33;;;;;;;8.52;7.93;;;;;;;19.98;71.13;99752.53;5099828;28;20048;-50
2021/06/25 05:51:58;;;;;;;7.82;7.13;;;;;;;20.06;70.85;99742.25;5099897;28;20055;-50
2021/06/25 05:54:24;;;;;;;7.55;6.95;;;;;;;20.18;70.82;99744.13;5099809;28;20048;-50
2021/06/25 05:56:50;;;;;;;7.68;7.07;;;;;;;20.31;70.59;99744.13;5098646;28;20051;-50
2021/06/25 05:59:16;;;;;;;6.53;6.03;;;;;;;20.40;70.41;99740.03;5099731;28;20044;-49
2021/06/25 06:01:42;;;;;;;8.23;7.53;;;;;;;20.40;69.95;99732.91;5099390;28;20058;-50
2021/06/25 06:04:08;;;;;;;7.32;6.72;;;;;;;20.49;69.37;99742.06;5099355;28;20044;-50
2021/06/25 06:06:34;;;;;;;7.30;6.63;;;;;;;20.49;69.05;99747.41;5098708;28;20055;-50
2021/06/25 06:09:02;;;;;;;5.65;5.18;;;;;;;20.51;68.75;99749.03;5099463;28;20356;-50
2021/06/25 06:11:27;;;;;;;5.18;4.70;;;;;;;20.59;68.11;99750.31;5099480;28;20135;-50
2021/06/25 06:13:53;;;;;;;4.95;4.55;;;;;;;20.62;67.60;99756.28;5099449;28;20089;-50
2021/06/25 06:16:19;;;;;;;4.97;4.57;;;;;;;20.66;67.77;99760.44;5099394;28;20492;-50
2021/06/25 06:18:47;;;;;;;4.93;4.53;;;;;;;20.65;67.62;99758.75;5099367;28;20059;-50
2021/06/25 06:21:14;;;;;;;5.63;5.22;;;;;;;20.57;67.55;99765.53;5099231;28;20067;-50
2021/06/25 06:31:58;;;;;;;3.47;3.17;;;;;;;20.52;68.08;99763.19;5098816;28;20063;-50
2021/06/25 06:34:24;;;;;;;3.30;3.05;;;;;;;20.57;67.59;99771.69;5098765;28;20090;-50
2021/06/25 06:36:51;;;;;;;3.97;3.67;;;;;;;20.58;67.49;99776.06;5097817;28;20052;-49
2021/06/25 06:39:18;;;;;;;3.60;3.40;;;;;;;20.59;67.72;99768.94;5081293;28;20044;-50
2021/06/25 06:41:44;;;;;;;3.33;3.13;;;;;;;20.63;67.83;99771.28;5098862;28;20044;-50
2021/06/25 06:44:09;;;;;;;3.45;3.15;;;;;;;20.66;67.20;99779.06;5098788;28;20063;-49
2021/06/25 06:46:36;;;;;;;3.55;3.28;;;;;;;20.66;67.24;99767.56;5098782;28;20052;-50
2021/06/25 06:49:01;;;;;;;3.30;3.00;;;;;;;20.68;67.13;99777.16;5098633;28;20066;-49
2021/06/25 06:51:27;;;;;;;4.05;3.75;;;;;;;20.68;66.83;99765.66;5098667;28;20403;-50
2021/06/25 06:53:56;;;;;;;4.45;3.53;;;;;;;20.67;67.48;99764.81;5098402;28;20044;-49
2021/06/25 06:56:22;;;;;;;4.40;4.10;;;;;;;20.68;67.23;99766.53;5098592;28;20137;-50
2021/06/25 06:58:51;;;;;;;4.47;3.83;;;;;;;20.70;67.24;99764.63;5098809;28;20443;-50
2021/06/25 07:01:17;;;;;;;4.55;3.63;;;;;;;20.66;66.73;99759.59;5098520;28;20044;-50
2021/06/25 07:03:43;;;;;;;3.75;3.45;;;;;;;20.62;66.65;99756.28;5098163;28;20048;-50
2021/06/25 07:06:09;;;;;;;3.42;3.13;;;;;;;20.59;66.40;99755.66;5097339;28;20036;-50
2021/06/25 07:08:35;;;;;;;3.42;3.13;;;;;;;20.53;66.51;99760.41;5098353;28;20055;-50
2021/06/25 07:11:01;;;;;;;3.35;3.05;;;;;;;20.56;66.91;99761.16;5098230;28;20407;-50
2021/06/25 07:13:27;;;;;;;3.58;2.30;;;;;;;20.63;66.95;99765.97;5099021;28;20341;-50
2021/06/25 07:15:57;;;;;;;2.38;2.28;;;;;;;20.76;66.02;99760.66;5098212;28;20048;-50
2021/06/25 07:18:25;;;;;;;1.90;1.80;;;;;;;20.86;66.26;99769.72;5098177;28;20039;-50
2021/06/25 07:20:51;;;;;;;2.10;2.00;;;;;;;21.00;66.24;99768.81;5098132;28;20126;-50
2021/06/25 07:23:17;;;;;;;3.22;2.25;;;;;;;21.15;65.80;99774.84;5098067;28;20448;-49
2021/06/25 07:25:43;;;;;;;3.28;2.95;;;;;;;21.21;65.34;99769.13;5097750;28;20456;-50
2021/06/25 07:28:09;;;;;;;3.88;2.60;;;;;;;21.24;65.58;99772.41;5097535;28;20052;-50
2021/06/25 07:30:35;;;;;;;3.47;2.95;;;;;;;21.28;65.42;99778.38;5097514;28;20093;-49
2021/06/25 07:33:01;;;;;;;4.90;3.30;;;;;;;21.27;64.93;99765.19;5097034;28;20048;-50
2021/06/25 07:35:26;;;;;;;3.25;2.95;;;;;;;21.28;64.94;99772.19;5097592;28;20062;-49
2021/06/25 07:37:52;;;;;;;2.97;2.65;;;;;;;21.29;64.29;99768.59;5096447;28;20113;-49
2021/06/25 07:40:19;;;;;;;3.42;2.45;;;;;;;21.30;64.64;99770.28;5097778;28;20052;-50
2021/06/25 07:42:45;;;;;;;2.67;2.47;;;;;;;21.32;64.74;99779.00;5097074;28;20071;-49
2021/06/25 07:45:12;;;;;;;2.85;2.63;;;;;;;21.33;64.20;99781.56;5097451;28;20066;-50
2021/06/25 07:47:38;;;;;;;5.05;2.42;;;;;;;21.40;64.55;99780.22;5098180;28;20059;-50
2021/06/25 07:50:06;;;;;;;2.30;2.10;;;;;;;21.53;64.41;99787.34;5097812;28;20051;-49
2021/06/25 07:52:32;;;;;;;2.47;2.28;;;;;;;21.62;64.13;99776.88;5097289;28;20048;-50
2021/06/25 07:54:58;;;;;;;2.92;2.47;;;;;;;21.71;63.86;99780.72;5096273;28;20135;-49
2021/06/25 07:57:23;;;;;;;1.85;1.73;;;;;;;21.80;63.58;99779.19;5097439;28;20044;-49
2021/06/25 07:59:49;;;;;;;2.33;2.10;;;;;;;21.89;63.47;99766.03;5097399;28;20044;-50
2021/06/25 08:02:15;;;;;;;2.90;1.92;;;;;;;21.97;63.21;99762.84;5097345;28;20059;-50
2021/06/25 08:04:45;;;;;;;3.95;2.10;;;;;;;22.00;62.84;99761.75;5097277;28;20048;-49
2021/06/25 08:07:14;;;;;;;2.15;1.98;;;;;;;22.16;62.47;99759.69;5096765;28;20113;-50
2021/06/25 08:09:41;;;;;;;2.35;1.80;;;;;;;22.23;62.45;99760.06;5097087;28;20051;-50
2021/06/25 08:12:11;;;;;;;3.35;3.05;;;;;;;22.27;61.01;99757.09;5097152;28;20052;-50
2021/06/25 08:14:37;;;;;;;1.95;1.80;;;;;;;22.29;62.00;99749.81;5096303;28;20056;-50
2021/06/25 08:17:03;;;;;;;2.33;2.13;;;;;;;22.32;61.83;99744.25;5097348;28;20052;-50
2021/06/25 08:19:29;;;;;;;1.80;1.70;;;;;;;22.31;61.65;99739.88;5097333;28;20108;-49
2021/06/25 08:21:55;;;;;;;2.60;1.80;;;;;;;22.31;60.62;99731.88;5097105;28;20348;-49
2021/06/25 08:24:21;;;;;;;1.70;1.45;;;;;;;22.42;61.42;99741.72;5096030;28;20052;-49
2021/06/25 08:26:46;;;;;;;2.30;1.65;;;;;;;22.54;61.11;99748.81;5095845;28;20334;-49
2021/06/25 08:29:12;;;;;;;1.65;1.50;;;;;;;22.60;60.33;99747.50;5096561;28;20044;-50
2021/06/25 08:31:38;;;;;;;1.73;1.60;;;;;;;22.66;60.19;99746.19;5097135;28;20043;-49
2021/06/25 08:34:05;;;;;;;2.38;2.10;;;;;;;22.69;60.78;99740.63;5096453;28;20145;-49
2021/06/25 08:36:31;;;;;;;1.60;1.50;;;;;;;22.74;59.30;99749.97;5096790;28;20044;-50
2021/06/25 08:38:57;;;;;;;1.60;1.50;;;;;;;22.70;59.64;99745.84;5096670;28;20048;-50
2021/06/25 08:41:23;;;;;;;2.67;1.73;;;;;;;22.70;59.27;99732.50;5095424;28;20451;-49
2021/06/25 08:43:49;;;;;;;1.98;1.40;;;;;;;22.75;59.26;99740.13;5096910;28;20075;-50
2021/06/25 08:46:15;;;;;;;1.17;1.10;;;;;;;22.86;59.80;99750.84;5096878;28;20039;-50
2021/06/25 08:48:40;;;;;;;1.85;1.25;;;;;;;22.91;59.68;99766.50;5096406;28;20421;-50
2021/06/25 08:51:07;;;;;;;1.85;1.45;;;;;;;22.94;59.35;99766.31;5062198;28;20047;-50
2021/06/25 08:53:32;;;;;;;1.67;1.08;;;;;;;22.90;59.26;99770.16;5096310;28;20101;-50
2021/06/25 08:55:58;;;;;;;1.20;1.10;;;;;;;22.89;59.12;99765.78;5078847;28;20040;-50
2021/06/25 08:58:24;;;;;;;1.52;0.95;;;;;;;22.85;59.07;99776.72;5096451;28;20052;-50
2021/06/25 09:00:50;;;;;;;1.10;1.00;;;;;;;22.83;58.60;99777.78;5095220;28;20483;-49
2021/06/25 09:03:19;;;;;;;2.65;0.98;;;;;;;22.85;59.02;99762.50;5096087;28;20459;-50
2021/06/25 09:05:45;;;;;;;1.27;0.80;;;;;;;22.84;59.45;99755.44;5096663;28;20056;-50
2021/06/25 09:08:26;;;;;;;2.17;1.20;;;;;;;22.76;58.31;99757.88;5096230;28;20105;-50
2021/06/25 09:10:58;;;;;;;1.33;1.20;;;;;;;22.71;59.19;99765.38;5096597;28;20036;-51
2021/06/25 09:13:36;;;;;;;2.35;1.20;;;;;;;22.76;59.09;99765.88;5096182;28;20048;-50
2021/06/25 09:16:21;;;;;;;1.88;1.23;;;;;;;22.68;60.19;99766.44;5077867;28;20036;-49
2021/06/25 09:19:01;;;;;;;1.50;1.33;;;;;;;22.66;59.75;99768.41;5094910;28;20052;-50
2021/06/25 09:21:29;;;;;;;1.02;1.02;;;;;;;22.69;60.44;99759.31;5096216;28;20067;-50
2021/06/25 09:23:54;;;;;;;0.57;0.57;;;;;;;22.93;60.98;99754.78;5096204;28;20044;-50
2021/06/25 09:26:22;;;;;;;1.80;1.30;;;;;;;23.31;59.67;99759.81;5094922;28;20172;-50
2021/06/25 09:28:48;;;;;;;2.13;0.80;;;;;;;23.46;58.98;99771.09;5078325;28;20059;-50
2021/06/25 09:31:15;;;;;;;1.52;1.27;;;;;;;23.54;57.38;99774.03;5095771;28;20451;-49
2021/06/25 09:33:54;;;;;;;2.20;1.40;;;;;;;23.47;56.48;99763.94;5111816;28;20501;-50
2021/06/25 09:36:21;;;;;;;0.95;0.95;;;;;;;23.23;57.43;99762.22;5079275;28;20070;-50
2021/06/25 09:38:47;;;;;;;4.57;1.40;;;;;;;23.22;57.97;99776.56;5095023;28;20044;-50
2021/06/25 09:41:20;;;;;;;1.85;1.10;;;;;;;23.26;56.87;99777.16;5078302;28;20055;-50
2021/06/25 09:43:56;;;;;;;1.20;1.10;;;;;;;23.42;57.44;99764.28;5094901;28;20063;-50
2021/06/25 09:46:30;;;;;;;1.48;0.75;;;;;;;23.60;56.97;99753.97;5096096;28;20119;-50
2021/06/25 09:48:58;;;;;;;1.27;1.17;;;;;;;23.69;56.94;99753.28;5095377;28;20113;-50
2021/06/25 09:51:24;;;;;;;1.33;1.08;;;;;;;23.84;55.52;99758.34;5095899;28;20071;-50
2021/06/25 09:54:03;;;;;;;2.30;1.08;;;;;;;23.95;56.25;99755.66;5094998;28;20048;-49
2021/06/25 09:56:31;;;;;;;3.38;1.30;;;;;;;23.99;56.18;99757.97;5094679;28;20052;-50
2021/06/25 10:01:53;;;;;;;0.70;0.40;;;;;;;24.08;56.20;99758.16;5097302;28;20044;-49
2021/06/25 10:04:33;;;;;;;2.60;0.85;;;;;;;24.31;54.62;99762.50;5098735;28;20433;-50
2021/06/25 10:07:21;;;;;;;1.13;0.60;;;;;;;24.40;54.21;99742.97;5099641;28;20051;-50
2021/06/25 10:09:48;;;;;;;2.58;1.00;;;;;;;24.56;54.20;99749.75;5081535;28;20048;-50
2021/06/25 10:12:16;;;;;;;0.75;0.60;;;;;;;24.59;53.75;99753.03;5098533;28;20048;-50
2021/06/25 10:14:42;;;;;;;0.60;0.60;;;;;;;24.72;53.54;99755.50;5098234;28;20048;-50
2021/06/25 10:17:09;;;;;;;0.95;0.77;;;;;;;24.80;53.26;99755.72;5099051;28;20074;-50
2021/06/25 10:19:40;;;;;;;0.82;0.50;;;;;;;24.93;52.75;99744.81;5099051;28;20040;-50
2021/06/25 10:22:10;;;;;;;1.85;0.65;;;;;;;24.88;52.35;99747.88;5099848;28;20043;-50
2021/06/25 10:24:37;;;;;;;0.90;0.70;;;;;;;24.86;52.35;99748.97;5098583;28;20052;-50
2021/06/25 10:27:04;;;;;;;3.95;0.82;;;;;;;24.76;51.50;99754.25;5097835;28;20139;-49
2021/06/25 10:29:34;;;;;;;0.77;0.50;;;;;;;24.82;51.93;99756.41;5115161;28;20058;-49
2021/06/25 10:32:01;;;;;;;0.85;0.73;;;;;;;24.88;52.64;99763.94;5099059;28;20352;-50
2021/06/25 10:34:34;;;;;;;0.93;0.30;;;;;;;24.94;52.67;99758.06;5098800;28;20044;-49
2021/06/25 10:37:01;;;;;;;2.08;0.77;;;;;;;24.92;52.18;99757.31;5082618;28;20048;-50
2021/06/25 10:39:27;;;;;;;1.10;0.60;;;;;;;24.91;53.08;99755.66;5098074;28;20059;-50
2021/06/25 10:41:56;;;;;;;1.80;0.50;;;;;;;24.88;52.76;99755.91;5097699;28;20048;-50
2021/06/25 10:44:43;;;;;;;1.92;0.73;;;;;;;24.76;51.62;99772.16;5098866;28;20047;-50
2021/06/25 10:47:19;;;;;;;0.88;0.88;;;;;;;24.58;52.34;99783.44;5098822;28;20059;-50
2021/06/25 10:50:09;;;;;;;4.40;0.60;;;;;;;24.40;52.31;99769.72;5098914;28;20044;-50
2021/06/25 10:52:39;;;;;;;1.10;0.93;;;;;;;24.25;53.99;99758.50;5098701;28;20058;-50
2021/06/25 10:55:17;;;;;;;1.15;0.88;;;;;;;24.10;54.87;99753.56;5098980;28;20067;-50
2021/06/25 10:57:49;;;;;;;2.35;0.85;;;;;;;23.99;55.51;99765.97;5097991;28;20047;-50
2021/06/25 11:00:28;;;;;;;1.00;0.80;;;;;;;23.83;56.09;99759.34;5098007;28;20062;-49
2021/06/25 11:02:54;;;;;;;1.52;1.05;;;;;;;23.78;56.60;99763.22;5081088;28;20044;-50
2021/06/25 11:05:26;;;;;;;1.25;1.05;;;;;;;23.68;56.76;99772.06;5098243;28;20044;-50
2021/06/25 11:08:02;;;;;;;2.15;0.95;;;;;;;23.60;56.77;99777.19;5080524;28;20119;-50
2021/06/25 11:10:33;;;;;;;1.40;1.30;;;;;;;23.51;57.21;99778.75;5099154;28;20056;-50
2021/06/25 11:13:12;;;;;;;2.13;1.50;;;;;;;23.38;57.68;99786.91;5096899;28;20043;-50
2021/06/25 11:15:38;;;;;;;1.42;1.23;;;;;;;23.39;57.60;99790.41;5098298;28;20055;-50
2021/06/25 11:18:20;;;;;;;1.27;1.00;;;;;;;23.40;58.15;99790.31;5097991;28;20128;-50
2021/06/25 11:20:53;;;;;;;1.33;0.77;;;;;;;23.34;57.85;99801.47;5081494;28;20059;-50
2021/06/25 11:23:29;;;;;;;1.92;1.42;;;;;;;23.32;57.65;99800.72;5097838;28;20055;-50
2021/06/25 11:25:59;;;;;;;2.63;1.02;;;;;;;23.26;58.05;99790.53;5097844;28;20094;-51
2021/06/25 11:28:35;;;;;;;2.35;1.20;;;;;;;23.26;58.96;99783.34;5097993;28;20421;-50
2021/06/25 11:31:17;;;;;;;1.85;1.10;;;;;;;23.26;59.89;99775.34;5097938;28;20055;-50
2021/06/25 11:33:53;;;;;;;2.00;1.60;;;;;;;23.29;60.06;99767.09;5097651;28;20057;-50
2021/06/25 11:36:25;;;;;;;1.75;1.65;;;;;;;23.36;60.82;99754.09;5097887;28;20048;-50
2021/06/25 11:39:10;;;;;;;2.83;1.50;;;;;;;23.48;61.90;99761.16;5098198;28;20044;-49
2021/06/25 11:41:56;;;;;;;2.78;2.40;;;;;;;23.67;60.73;99776.56;5097596;28;20348;-49